Time;durP1;ratioP1;P1;durP2;ratioP2;P2;SDS_P1;SDS_P2;PMS_P1;PMS_P2;Temp;Humidity;BMP_temperature;BMP_pressure;BME280_temperature;BME280_humidity;BME280_pressure;Samples;Min_cycle;Max_cycle;Signal;HPM_P1;HPM_P2
2023/05/06 00:00:45;;;;;;;3.95;2.50;;;20.00;89.80;;;;;;5093838;28;20043;-61
2023/05/06 00:03:11;;;;;;;5.55;3.08;;;20.00;89.80;;;;;;5112252;28;20054;-61
2023/05/06 00:05:38;;;;;;;5.28;2.90;;;;;;;;;;5077045;28;20047;-65
2023/05/06 00:08:04;;;;;;;5.43;2.72;;;20.00;89.80;;;;;;5109377;28;20115;-65
2023/05/06 00:10:30;;;;;;;4.70;2.40;;;19.90;88.30;;;;;;5094585;28;20038;-64
2023/05/06 00:12:56;;;;;;;4.63;2.60;;;19.80;87.20;;;;;;5110212;28;20464;-64
2023/05/06 00:15:22;;;;;;;4.97;2.78;;;19.80;87.50;;;;;;5107635;28;20079;-65
2023/05/06 00:17:47;;;;;;;4.75;2.75;;;19.80;87.40;;;;;;5113638;28;20044;-65
2023/05/06 00:20:13;;;;;;;4.72;2.47;;;20.00;89.80;;;;;;5113578;28;20130;-64
2023/05/06 00:22:39;;;;;;;3.92;2.35;;;19.90;89.70;;;;;;5111576;28;20040;-65
2023/05/06 00:25:05;;;;;;;4.63;2.33;;;20.00;85.80;;;;;;5111722;28;20039;-63
2023/05/06 00:27:31;;;;;;;4.88;2.45;;;;;;;;;;5113009;28;20391;-63
2023/05/06 00:29:57;;;;;;;5.00;2.42;;;20.00;89.70;;;;;;5091732;28;20520;-62
2023/05/06 00:32:23;;;;;;;5.03;2.72;;;20.00;89.80;;;;;;5109131;28;20083;-65
2023/05/06 00:34:49;;;;;;;3.40;2.15;;;20.10;87.50;;;;;;5094054;28;20044;-61
2023/05/06 00:37:15;;;;;;;5.05;2.60;;;19.80;89.60;;;;;;5095395;28;20048;-64
2023/05/06 00:39:41;;;;;;;4.78;2.63;;;19.90;87.70;;;;;;5107662;28;20066;-63
2023/05/06 00:42:07;;;;;;;4.63;2.75;;;;;;;;;;5108249;28;20070;-64
2023/05/06 00:44:33;;;;;;;4.78;2.70;;;;;;;;;;5090378;28;20063;-63
2023/05/06 00:46:59;;;;;;;4.43;2.47;;;19.90;89.70;;;;;;5108194;28;20126;-63
2023/05/06 00:49:25;;;;;;;4.32;2.42;;;19.90;89.60;;;;;;5075544;28;20458;-64
2023/05/06 00:51:51;;;;;;;4.32;2.67;;;19.90;88.70;;;;;;5090156;28;20128;-63
2023/05/06 00:54:17;;;;;;;5.10;2.78;;;;;;;;;;5111291;28;20039;-64
2023/05/06 00:56:43;;;;;;;4.78;2.72;;;19.90;87.50;;;;;;5111388;28;20120;-63
2023/05/06 00:59:09;;;;;;;7.07;3.13;;;;;;;;;;5109765;28;20093;-61
2023/05/06 01:01:36;;;;;;;5.45;2.72;;;19.90;89.60;;;;;;5111328;28;20032;-63
2023/05/06 01:04:02;;;;;;;4.93;2.80;;;;;;;;;;5110072;28;20051;-63
2023/05/06 01:06:50;;;;;;;4.78;2.63;;;19.90;85.50;;;;;;5111628;28;20057;-65
2023/05/06 01:09:23;;;;;;;4.72;2.67;;;19.70;89.60;;;;;;5109406;28;20126;-65
2023/05/06 01:11:56;;;;;;;6.40;3.05;;;19.80;87.20;;;;;;5110766;28;20040;-63
2023/05/06 01:14:37;;;;;;;5.55;2.80;;;19.80;85.30;;;;;;5093451;28;20044;-64
2023/05/06 01:17:05;;;;;;;4.97;2.72;;;;;;;;;;5093262;28;20047;-64
2023/05/06 01:19:40;;;;;;;6.78;3.13;;;19.70;89.70;;;;;;5113301;28;20044;-63
2023/05/06 01:22:07;;;;;;;5.13;2.97;;;;;;;;;;5112341;28;20123;-63
2023/05/06 01:24:51;;;;;;;4.53;2.70;;;;;;;;;;5112640;28;20084;-63
2023/05/06 01:27:17;;;;;;;4.90;2.95;;;19.90;89.80;;;;;;5113179;28;20366;-63
2023/05/06 01:29:44;;;;;;;5.03;2.90;;;19.70;89.30;;;;;;5111087;28;20044;-63
2023/05/06 01:32:18;;;;;;;5.32;3.10;;;19.80;85.00;;;;;;5105948;28;20044;-61
2023/05/06 01:35:21;;;;;;;4.40;2.60;;;19.70;86.60;;;;;;5111465;28;20488;-61
2023/05/06 01:37:51;;;;;;;6.63;3.10;;;19.80;88.50;;;;;;5091805;28;20504;-64
2023/05/06 01:40:17;;;;;;;5.57;3.30;;;19.80;89.70;;;;;;5083222;28;20122;-63
2023/05/06 01:42:44;;;;;;;5.90;3.33;;;19.80;89.70;;;;;;5069811;28;20514;-64
2023/05/06 01:45:10;;;;;;;5.90;3.60;;;19.60;89.40;;;;;;5068219;28;20157;-65
2023/05/06 01:47:36;;;;;;;5.78;3.63;;;19.80;89.70;;;;;;5049051;28;20104;-64
2023/05/06 01:50:01;;;;;;;6.43;3.85;;;19.60;89.50;;;;;;5068826;28;20043;-64
2023/05/06 01:52:27;;;;;;;5.85;3.65;;;19.50;89.50;;;;;;5067226;28;20398;-63
2023/05/06 01:54:53;;;;;;;6.03;3.75;;;19.70;89.70;;;;;;5068813;28;20044;-63
2023/05/06 01:57:19;;;;;;;7.78;4.00;;;19.60;88.20;;;;;;5072839;28;20044;-64
2023/05/06 01:59:45;;;;;;;4.90;3.28;;;;;;;;;;5070123;28;20045;-64
2023/05/06 02:02:11;;;;;;;5.78;3.50;;;19.70;89.40;;;;;;5071887;28;20049;-64
2023/05/06 02:04:37;;;;;;;6.18;3.60;;;;;;;;;;5074325;28;20044;-64
2023/05/06 02:07:03;;;;;;;6.93;3.58;;;;;;;;;;5074014;28;20390;-63
2023/05/06 02:09:28;;;;;;;5.35;3.38;;;19.80;89.60;;;;;;5074077;28;20068;-65
2023/05/06 02:11:54;;;;;;;4.60;3.10;;;19.60;88.50;;;;;;5074140;28;20079;-64
2023/05/06 02:14:21;;;;;;;5.60;3.20;;;;;;;;;;5074229;28;20052;-65
2023/05/06 02:16:46;;;;;;;6.15;3.42;;;19.70;89.50;;;;;;5072655;28;20397;-64
2023/05/06 02:19:12;;;;;;;5.28;3.17;;;19.60;86.40;;;;;;5072619;28;20056;-63
2023/05/06 02:21:38;;;;;;;5.60;3.38;;;;;;;;;;5074021;28;20436;-63
2023/05/06 02:24:04;;;;;;;4.95;2.88;;;19.70;89.60;;;;;;5073916;28;20040;-63
2023/05/06 02:26:30;;;;;;;5.28;2.78;;;;;;;;;;5072846;28;20048;-63
2023/05/06 02:28:56;;;;;;;4.30;2.90;;;19.80;86.40;;;;;;5073669;28;20051;-63
2023/05/06 02:31:22;;;;;;;4.95;2.50;;;19.70;89.60;;;;;;5073824;28;20041;-62
2023/05/06 02:33:48;;;;;;;4.38;2.70;;;;;;;;;;5073129;28;20041;-63
2023/05/06 02:36:14;;;;;;;4.97;2.72;;;19.40;89.20;;;;;;5073279;28;20577;-61
2023/05/06 02:38:40;;;;;;;4.03;2.45;;;19.60;89.40;;;;;;5070251;28;20253;-64
2023/05/06 02:41:05;;;;;;;3.42;2.30;;;19.40;88.40;;;;;;5076132;28;20072;-63
2023/05/06 02:43:31;;;;;;;4.35;2.65;;;19.50;87.80;;;;;;5114365;28;20048;-63
2023/05/06 02:45:57;;;;;;;4.90;2.55;;;;;;;;;;5108832;28;20070;-65
2023/05/06 02:48:23;;;;;;;3.95;2.65;;;;;;;;;;5110812;28;20036;-65
2023/05/06 02:50:50;;;;;;;4.20;2.80;;;19.50;86.20;;;;;;5112417;28;20051;-63
2023/05/06 02:53:16;;;;;;;5.15;2.97;;;19.40;89.20;;;;;;5113013;28;20131;-63
2023/05/06 02:55:42;;;;;;;4.28;2.63;;;19.60;89.40;;;;;;5094326;28;20086;-62
2023/05/06 02:58:07;;;;;;;3.70;2.50;;;19.50;86.00;;;;;;5109877;28;20489;-64
2023/05/06 03:00:33;;;;;;;4.00;2.60;;;19.50;89.30;;;;;;5114174;28;20035;-62
2023/05/06 03:02:59;;;;;;;3.50;2.28;;;19.30;87.80;;;;;;5112672;28;20043;-64
2023/05/06 03:05:25;;;;;;;3.45;2.30;;;19.40;89.20;;;;;;5113707;28;20036;-62
2023/05/06 03:07:51;;;;;;;4.45;2.75;;;;;;;;;;5112647;28;20039;-63
2023/05/06 03:10:17;;;;;;;3.80;2.53;;;19.50;89.30;;;;;;5111298;28;20072;-62
2023/05/06 03:12:43;;;;;;;4.10;2.28;;;19.50;89.30;;;;;;5112133;28;20074;-64
2023/05/06 03:15:09;;;;;;;4.00;2.60;;;;;;;;;;5113413;28;20051;-63
2023/05/06 03:17:36;;;;;;;4.57;2.45;;;19.40;88.80;;;;;;5108730;28;20046;-61
2023/05/06 03:20:02;;;;;;;3.67;2.53;;;;;;;;;;5111510;28;20044;-64
2023/05/06 03:22:28;;;;;;;3.25;2.15;;;;;;;;;;5113453;28;20038;-65
2023/05/06 03:24:54;;;;;;;5.00;2.50;;;19.30;89.10;;;;;;5112461;28;20042;-64
2023/05/06 03:27:20;;;;;;;4.35;2.67;;;;;;;;;;5112843;28;20438;-64
2023/05/06 03:29:46;;;;;;;4.10;2.28;;;19.30;89.00;;;;;;5093923;28;20047;-64
2023/05/06 03:32:12;;;;;;;4.15;2.50;;;19.50;89.00;;;;;;5111571;28;20123;-65
2023/05/06 03:34:38;;;;;;;3.42;2.50;;;;;;;;;;5110509;28;20051;-64
2023/05/06 03:37:04;;;;;;;3.45;2.40;;;;;;;;;;5111932;28;20050;-64
2023/05/06 03:39:30;;;;;;;4.03;2.70;;;;;;;;;;5112470;28;20159;-63
2023/05/06 03:41:56;;;;;;;3.55;2.10;;;19.10;88.80;;;;;;5112019;28;20136;-65
2023/05/06 03:44:22;;;;;;;3.28;2.30;;;19.40;89.00;;;;;;5089278;28;20516;-64
2023/05/06 03:46:47;;;;;;;3.72;2.58;;;19.30;88.90;;;;;;5110432;28;20465;-64
2023/05/06 03:49:14;;;;;;;3.28;2.20;;;;;;;;;;5112396;28;20058;-64
2023/05/06 03:51:40;;;;;;;3.75;2.40;;;;;;;;;;5112401;28;20050;-64
2023/05/06 03:54:06;;;;;;;3.35;2.20;;;19.00;88.40;;;;;;5091959;28;20140;-64
2023/05/06 03:56:31;;;;;;;3.42;2.20;;;19.40;88.80;;;;;;5094016;28;20134;-64
2023/05/06 03:58:57;;;;;;;3.63;2.20;;;19.10;85.70;;;;;;5111553;28;20050;-62
2023/05/06 04:01:23;;;;;;;3.47;2.30;;;19.10;87.60;;;;;;5109556;28;20035;-63
2023/05/06 04:03:50;;;;;;;2.72;1.90;;;;;;;;;;5091647;28;20045;-63
2023/05/06 04:06:16;;;;;;;3.05;2.10;;;;;;;;;;5111485;28;20040;-64
2023/05/06 04:08:43;;;;;;;3.83;2.25;;;;;;;;;;5111339;28;20046;-64
2023/05/06 04:11:09;;;;;;;3.38;2.10;;;19.10;88.50;;;;;;5109510;28;20392;-62
2023/05/06 04:13:36;;;;;;;3.30;2.20;;;;;;;;;;5094133;28;20087;-65
2023/05/06 04:16:03;;;;;;;3.22;2.13;;;;;;;;;;5109070;28;20123;-64
2023/05/06 04:18:29;;;;;;;2.92;2.00;;;;;;;;;;5092124;28;20496;-64
2023/05/06 04:20:55;;;;;;;2.63;1.90;;;19.20;84.90;;;;;;5092757;28;20066;-64
2023/05/06 04:23:21;;;;;;;2.33;1.80;;;;;;;;;;5109536;28;20039;-63
2023/05/06 04:25:50;;;;;;;2.28;1.70;;;19.30;88.20;;;;;;5110027;28;20116;-64
2023/05/06 04:28:16;;;;;;;2.35;1.80;;;;;;;;;;5107574;28;20374;-64
2023/05/06 04:30:43;;;;;;;2.33;1.90;;;;;;;;;;5110173;28;20066;-63
2023/05/06 04:33:09;;;;;;;3.70;1.80;;;;;;;;;;5109347;28;20369;-62
2023/05/06 04:35:35;;;;;;;2.63;1.70;;;;;;;;;;5109470;28;20050;-64
2023/05/06 04:38:02;;;;;;;2.63;1.80;;;;;;;;;;5106847;28;20103;-64
2023/05/06 04:40:28;;;;;;;1.95;1.58;;;19.40;87.90;;;;;;5106331;28;20039;-61
2023/05/06 04:42:55;;;;;;;2.90;1.73;;;;;;;;;;5091303;28;20063;-61
2023/05/06 04:45:24;;;;;;;2.65;1.65;;;19.30;84.00;;;;;;5091075;28;20051;-63
2023/05/06 04:47:51;;;;;;;2.75;2.03;;;;;;;;;;5072103;28;20118;-64
2023/05/06 04:50:17;;;;;;;3.45;1.70;;;;;;;;;;5109631;28;20047;-65
2023/05/06 04:52:43;;;;;;;2.17;1.60;;;19.30;88.00;;;;;;5108901;28;20445;-61
2023/05/06 04:55:10;;;;;;;2.80;1.90;;;;;;;;;;5109461;28;20086;-65
2023/05/06 04:57:35;;;;;;;2.83;1.83;;;19.30;87.50;;;;;;5101876;28;20052;-62
2023/05/06 05:00:02;;;;;;;3.03;1.95;;;19.40;86.80;;;;;;5109228;28;20107;-62
2023/05/06 05:02:28;;;;;;;2.83;1.90;;;;;;;;;;5081173;28;20051;-64
2023/05/06 05:04:54;;;;;;;3.05;1.88;;;19.60;86.90;;;;;;5108544;28;20040;-60
2023/05/06 05:07:20;;;;;;;3.10;1.85;;;;;;;;;;5101912;28;20043;-65
2023/05/06 05:09:46;;;;;;;3.28;1.95;;;19.60;85.10;;;;;;5068906;28;20051;-65
2023/05/06 05:12:12;;;;;;;3.60;2.10;;;;;;;;;;5095854;28;20044;-61
2023/05/06 05:14:39;;;;;;;2.75;1.92;;;;;;;;;;5104588;28;20143;-65
2023/05/06 05:17:05;;;;;;;3.22;2.20;;;;;;;;;;5099061;28;20252;-66
2023/05/06 05:19:31;;;;;;;2.30;1.60;;;19.60;83.80;;;;;;5102507;28;20047;-65
2023/05/06 05:21:57;;;;;;;3.15;2.08;;;19.40;82.90;;;;;;5099611;28;20036;-64
2023/05/06 05:24:23;;;;;;;2.40;1.80;;;19.40;86.80;;;;;;5107213;28;20047;-63
2023/05/06 05:26:49;;;;;;;3.03;1.90;;;;;;;;;;5106969;28;20035;-64
2023/05/06 05:29:15;;;;;;;5.43;2.00;;;;;;;;;;5106776;28;20468;-64
2023/05/06 05:31:41;;;;;;;3.40;1.90;;;19.60;85.70;;;;;;5109782;28;20469;-64
2023/05/06 05:34:07;;;;;;;2.72;1.70;;;;;;;;;;5108280;28;20660;-64
2023/05/06 05:36:34;;;;;;;3.63;1.80;;;;;;;;;;5109406;28;20043;-65
2023/05/06 05:39:00;;;;;;;3.00;1.80;;;;;;;;;;5111562;28;20043;-66
2023/05/06 05:41:26;;;;;;;2.88;1.95;;;;;;;;;;5109366;28;20134;-64
2023/05/06 05:43:52;;;;;;;2.75;1.95;;;;;;;;;;5109772;28;20818;-64
2023/05/06 05:46:19;;;;;;;3.25;1.83;;;;;;;;;;5107828;28;20039;-63
2023/05/06 05:48:45;;;;;;;4.32;2.30;;;;;;;;;;5107423;28;20163;-65
2023/05/06 05:51:11;;;;;;;3.13;2.13;;;;;;;;;;5107576;28;20043;-65
2023/05/06 05:53:37;;;;;;;3.50;2.05;;;19.40;86.90;;;;;;5086569;28;20052;-65
2023/05/06 05:56:03;;;;;;;3.38;2.03;;;19.50;86.90;;;;;;5096351;28;20040;-64
2023/05/06 05:58:29;;;;;;;3.22;2.03;;;;;;;;;;5093995;28;20044;-62
2023/05/06 06:00:55;;;;;;;3.50;2.10;;;;;;;;;;5096474;28;20054;-63
2023/05/06 06:03:21;;;;;;;4.55;2.40;;;19.80;85.30;;;;;;5101536;28;20040;-64
2023/05/06 06:05:48;;;;;;;3.42;2.20;;;;;;;;;;5107150;28;20054;-62
2023/05/06 06:08:16;;;;;;;4.72;2.50;;;19.60;83.90;;;;;;5087904;28;20532;-65
2023/05/06 06:10:42;;;;;;;3.78;2.40;;;19.70;87.00;;;;;;5103826;28;20112;-64
2023/05/06 06:13:08;;;;;;;6.95;2.50;;;;;;;;;;5107658;28;20035;-64
2023/05/06 06:15:34;;;;;;;4.03;2.40;;;;;;;;;;5107833;28;20445;-66
2023/05/06 06:18:01;;;;;;;4.13;2.35;;;;;;;;;;5107705;28;20519;-64
2023/05/06 06:20:30;;;;;;;3.78;2.50;;;19.90;86.60;;;;;;5107199;28;20077;-63
2023/05/06 06:22:56;;;;;;;4.10;2.47;;;;;;;;;;5106809;28;20132;-64
2023/05/06 06:25:22;;;;;;;5.50;2.88;;;19.80;84.90;;;;;;5108595;28;20050;-63
2023/05/06 06:27:48;;;;;;;4.05;2.50;;;19.90;86.90;;;;;;5088920;28;20035;-63
2023/05/06 06:30:14;;;;;;;4.60;2.50;;;;;;;;;;5110565;28;20036;-64
2023/05/06 06:32:47;;;;;;;4.50;2.55;;;19.80;84.00;;;;;;5095650;28;20040;-65
2023/05/06 06:35:12;;;;;;;4.05;2.70;;;20.00;87.10;;;;;;5102556;28;20051;-65
2023/05/06 06:37:38;;;;;;;5.20;3.08;;;19.80;86.10;;;;;;5110736;28;20043;-64
2023/05/06 06:40:05;;;;;;;4.90;2.92;;;20.00;87.10;;;;;;5106759;28;20070;-62
2023/05/06 06:42:31;;;;;;;4.28;2.80;;;;;;;;;;5059891;28;1372602;-64
2023/05/06 06:44:58;;;;;;;4.50;2.88;;;;;;;;;;5109827;28;21303;-66
2023/05/06 06:47:24;;;;;;;4.75;3.05;;;20.00;87.30;;;;;;5103129;28;20499;-64
2023/05/06 06:49:50;;;;;;;4.65;3.00;;;;;;;;;;5103092;28;20097;-62
2023/05/06 06:52:16;;;;;;;4.75;3.30;;;20.00;85.60;;;;;;5109680;28;20043;-65
2023/05/06 06:54:42;;;;;;;5.20;3.40;;;19.90;86.90;;;;;;5108564;28;20040;-65
2023/05/06 06:57:08;;;;;;;6.32;3.13;;;;;;;;;;5108056;28;20048;-62
2023/05/06 06:59:34;;;;;;;5.28;3.60;;;;;;;;;;5105413;28;20087;-61
2023/05/06 07:02:01;;;;;;;5.28;3.38;;;20.20;87.20;;;;;;5102728;28;20504;-63
2023/05/06 07:04:27;;;;;;;4.90;2.70;;;20.20;86.80;;;;;;5092037;28;20477;-62
2023/05/06 07:06:53;;;;;;;9.90;5.68;;;;;;;;;;5088782;28;20036;-66
2023/05/06 07:09:19;;;;;;;8.13;5.40;;;;;;;;;;5106667;28;20040;-65
2023/05/06 07:11:45;;;;;;;8.65;6.30;;;20.10;87.00;;;;;;5108886;28;20042;-66
2023/05/06 07:14:11;;;;;;;8.45;6.45;;;;;;;;;;5106370;28;20044;-66
2023/05/06 07:16:37;;;;;;;10.93;6.95;;;20.10;87.60;;;;;;5109026;28;20036;-64
2023/05/06 07:19:02;;;;;;;9.65;7.97;;;20.00;87.50;;;;;;5109427;28;20407;-64
2023/05/06 07:21:31;;;;;;;8.57;6.50;;;;;;;;;;5107909;28;20519;-65
2023/05/06 07:23:57;;;;;;;9.50;7.65;;;;;;;;;;5111494;28;20514;-65
2023/05/06 07:26:23;;;;;;;9.57;7.53;;;19.90;88.50;;;;;;5108949;28;20123;-65
2023/05/06 07:28:49;;;;;;;10.48;7.70;;;;;;;;;;5110642;28;20126;-66
2023/05/06 07:31:19;;;;;;;10.20;7.50;;;;;;;;;;5089771;28;20856;-63
2023/05/06 07:33:46;;;;;;;11.27;8.25;;;19.60;88.80;;;;;;5106113;28;20111;-63
2023/05/06 07:36:12;;;;;;;12.07;9.30;;;19.60;89.30;;;;;;5104370;28;20135;-63
2023/05/06 07:38:38;;;;;;;9.57;7.70;;;;;;;;;;5104508;28;20544;-65
2023/05/06 07:41:05;;;;;;;10.38;7.97;;;;;;;;;;5102912;28;20047;-62
2023/05/06 07:43:31;;;;;;;11.25;8.00;;;19.30;89.70;;;;;;5106187;28;20035;-62
2023/05/06 07:46:01;;;;;;;10.27;7.60;;;;;;;;;;5106509;28;20063;-63
2023/05/06 07:48:30;;;;;;;9.75;7.55;;;19.50;90.00;;;;;;5104810;28;20485;-64
2023/05/06 07:50:56;;;;;;;10.52;8.48;;;19.50;90.00;;;;;;5110163;28;20119;-61
2023/05/06 07:53:22;;;;;;;11.15;8.30;;;;;;;;;;5112953;28;20066;-62
2023/05/06 07:55:48;;;;;;;10.93;8.15;;;19.40;90.10;;;;;;5113234;28;20527;-61
2023/05/06 07:58:14;;;;;;;12.05;8.43;;;19.60;90.10;;;;;;5113026;28;20034;-64
2023/05/06 08:00:40;;;;;;;11.75;8.82;;;;;;;;;;5106870;28;20489;-62
2023/05/06 08:03:07;;;;;;;12.13;8.48;;;;;;;;;;5106404;28;20460;-65
2023/05/06 08:05:33;;;;;;;12.48;7.78;;;19.30;90.00;;;;;;5108100;28;20043;-64
2023/05/06 08:07:59;;;;;;;12.20;8.88;;;;;;;;;;5109819;28;20378;-62
2023/05/06 08:10:25;;;;;;;14.00;9.10;;;19.60;87.90;;;;;;5104047;28;20092;-63
2023/05/06 08:12:51;;;;;;;11.00;8.57;;;;;;;;;;5106475;28;20412;-64
2023/05/06 08:15:18;;;;;;;13.63;8.13;;;;;;;;;;5109944;28;20086;-66
2023/05/06 08:17:44;;;;;;;12.63;8.40;;;;;;;;;;5105904;28;20196;-65
2023/05/06 08:20:10;;;;;;;13.93;9.00;;;19.70;89.30;;;;;;5108395;28;20489;-63
2023/05/06 08:22:36;;;;;;;10.50;8.10;;;;;;;;;;5108086;28;20039;-64
2023/05/06 08:25:03;;;;;;;10.25;8.20;;;;;;;;;;5107346;28;20044;-63
2023/05/06 08:27:29;;;;;;;10.80;7.20;;;19.80;87.60;;;;;;5107203;28;20048;-63
2023/05/06 08:29:54;;;;;;;11.80;8.05;;;20.00;89.60;;;;;;5106694;28;20495;-63
2023/05/06 08:32:20;;;;;;;12.55;7.68;;;19.80;90.10;;;;;;5109436;28;20035;-62
2023/05/06 08:34:46;;;;;;;11.10;7.50;;;19.90;90.10;;;;;;5111761;28;20143;-64
2023/05/06 08:37:12;;;;;;;9.65;7.22;;;;;;;;;;5111995;28;20039;-65
2023/05/06 08:39:38;;;;;;;11.82;7.57;;;19.80;90.10;;;;;;5109465;28;20039;-66
2023/05/06 08:42:04;;;;;;;9.82;7.50;;;;;;;;;;5109528;28;20055;-67
2023/05/06 08:44:30;;;;;;;9.52;7.45;;;20.10;87.90;;;;;;5092562;28;20082;-70
2023/05/06 08:46:56;;;;;;;13.50;8.40;;;19.80;90.00;;;;;;5111810;28;20063;-63
2023/05/06 08:49:22;;;;;;;12.60;8.00;;;;;;;;;;5092227;28;20058;-67
2023/05/06 08:51:51;;;;;;;12.73;8.38;;;19.90;87.40;;;;;;5109249;28;20078;-64
2023/05/06 08:54:17;;;;;;;13.85;8.50;;;;;;;;;;5093665;28;20055;-62
2023/05/06 08:56:45;;;;;;;20.20;9.05;;;20.00;88.20;;;;;;5094837;28;20134;-70
2023/05/06 08:59:12;;;;;;;14.30;9.43;;;20.00;90.30;;;;;;5088874;28;20127;-62
2023/05/06 09:01:38;;;;;;;13.52;8.80;;;;;;;;;;5090767;28;20048;-65
2023/05/06 09:04:06;;;;;;;13.45;9.43;;;19.70;90.30;;;;;;5099421;28;20391;-64
2023/05/06 09:06:33;;;;;;;12.57;8.52;;;20.10;90.50;;;;;;5108406;28;20050;-63
2023/05/06 09:08:59;;;;;;;13.88;8.60;;;;;;;;;;5112839;28;20047;-65
2023/05/06 09:11:28;;;;;;;11.30;8.93;;;20.00;90.40;;;;;;5094120;28;20052;-64
2023/05/06 09:14:14;;;;;;;10.93;8.25;;;20.00;86.90;;;;;;5112455;28;20039;-64
2023/05/06 09:16:58;;;;;;;13.70;8.23;;;20.10;86.10;;;;;;5112318;28;20181;-63
2023/05/06 09:19:24;;;;;;;11.77;7.95;;;;;;;;;;5092502;28;20097;-64
2023/05/06 09:21:50;;;;;;;9.63;7.28;;;20.10;89.60;;;;;;5074592;28;20040;-64
2023/05/06 09:24:16;;;;;;;9.55;7.45;;;;;;;;;;5092310;28;20049;-64
2023/05/06 09:26:43;;;;;;;10.38;7.00;;;19.40;86.80;;;;;;5092422;28;20090;-64
2023/05/06 09:29:09;;;;;;;9.65;7.45;;;20.30;90.00;;;;;;5092322;28;20635;-64
2023/05/06 09:31:42;;;;;;;8.52;6.05;;;20.80;85.80;;;;;;5105328;28;20130;-64
2023/05/06 09:34:08;;;;;;;9.82;6.47;;;20.80;86.40;;;;;;5107983;28;20052;-64
2023/05/06 09:36:34;;;;;;;9.65;6.82;;;;;;;;;;5092675;28;20066;-65
2023/05/06 09:39:00;;;;;;;11.55;6.45;;;;;;;;;;5098560;28;20549;-64
2023/05/06 09:41:26;;;;;;;9.45;6.80;;;20.80;89.70;;;;;;5112278;28;20477;-64
2023/05/06 09:43:53;;;;;;;8.35;6.03;;;21.00;89.70;;;;;;5112387;28;20063;-65
2023/05/06 09:46:20;;;;;;;7.85;5.57;;;21.00;88.00;;;;;;5112606;28;20044;-63
2023/05/06 09:48:46;;;;;;;8.93;5.70;;;21.20;89.60;;;;;;5112833;28;20079;-64
2023/05/06 09:51:12;;;;;;;9.07;5.60;;;21.20;89.60;;;;;;5089249;28;20047;-64
2023/05/06 09:53:38;;;;;;;7.78;5.55;;;21.10;89.40;;;;;;5092403;28;20044;-64
2023/05/06 09:56:07;;;;;;;8.77;5.82;;;21.10;89.40;;;;;;5103648;28;20104;-65
2023/05/06 09:58:33;;;;;;;9.60;6.05;;;21.30;89.30;;;;;;5112139;28;20054;-63
2023/05/06 10:01:00;;;;;;;8.82;5.43;;;21.40;87.90;;;;;;5112165;28;20374;-65
2023/05/06 10:03:26;;;;;;;8.77;5.43;;;21.20;89.10;;;;;;5112491;28;20047;-63
2023/05/06 10:05:53;;;;;;;8.45;5.10;;;21.10;86.10;;;;;;5112729;28;20073;-65
2023/05/06 10:08:20;;;;;;;10.35;5.47;;;;;;;;;;5106983;28;20374;-63
2023/05/06 10:10:46;;;;;;;7.57;5.00;;;;;;;;;;5083658;28;20083;-65
2023/05/06 10:13:12;;;;;;;8.30;5.35;;;21.60;89.20;;;;;;5111032;28;20042;-64
2023/05/06 10:15:38;;;;;;;8.10;4.80;;;;;;;;;;5110339;28;20043;-63
2023/05/06 10:18:05;;;;;;;10.95;5.07;;;21.30;86.10;;;;;;5082206;28;21673;-65
2023/05/06 10:20:31;;;;;;;12.20;5.80;;;;;;;;;;5082851;28;20055;-63
2023/05/06 10:23:21;;;;;;;12.55;6.43;;;21.60;88.20;;;;;;5094533;28;20044;-69
2023/05/06 10:25:50;;;;;;;12.13;7.22;;;21.60;83.70;;;;;;5066536;28;20067;-66
2023/05/06 10:28:17;;;;;;;9.23;6.82;;;;;;;;;;5083286;28;20105;-63
2023/05/06 10:30:43;;;;;;;11.25;6.65;;;;;;;;;;5082398;28;20050;-64
2023/05/06 10:33:09;;;;;;;9.52;6.90;;;21.70;85.50;;;;;;5095616;28;20040;-72
2023/05/06 10:35:45;;;;;;;14.15;7.70;;;21.40;85.80;;;;;;5095551;28;20082;-70
2023/05/06 10:38:20;;;;;;;11.93;6.95;;;21.40;87.30;;;;;;5083168;28;20090;-64
2023/05/06 10:40:46;;;;;;;9.32;6.45;;;21.30;85.30;;;;;;5095204;28;20150;-66
2023/05/06 10:43:24;;;;;;;11.93;7.40;;;21.40;88.50;;;;;;5102081;28;20142;-66
2023/05/06 10:46:05;;;;;;;11.52;7.07;;;21.40;84.00;;;;;;5100609;28;20051;-64
2023/05/06 10:48:31;;;;;;;10.25;6.72;;;;;;;;;;5071406;28;20044;-65
2023/05/06 10:51:15;;;;;;;9.20;6.63;;;21.70;84.00;;;;;;5095735;28;20047;-65
2023/05/06 10:54:03;;;;;;;8.90;6.00;;;21.60;83.70;;;;;;5097842;28;20059;-64
2023/05/06 10:56:33;;;;;;;10.90;6.97;;;21.80;88.50;;;;;;5108894;28;20047;-69
2023/05/06 10:59:09;;;;;;;10.15;7.38;;;21.80;83.90;;;;;;5105290;28;20036;-64
2023/05/06 11:01:36;;;;;;;12.05;7.00;;;21.60;87.10;;;;;;5100406;28;20436;-63
2023/05/06 11:04:09;;;;;;;10.48;7.05;;;21.80;83.80;;;;;;5099382;28;20086;-65
2023/05/06 11:06:36;;;;;;;9.98;6.30;;;;;;;;;;5089261;28;20097;-66
2023/05/06 11:09:03;;;;;;;13.85;7.07;;;22.10;85.70;;;;;;5095601;28;20051;-63
2023/05/06 11:12:03;;;;;;;16.25;7.50;;;22.00;86.80;;;;;;5080922;28;20067;-64
2023/05/06 11:14:30;;;;;;;16.70;7.22;;;21.90;85.10;;;;;;5083861;28;20051;-63
2023/05/06 11:16:57;;;;;;;13.35;7.30;;;22.10;85.30;;;;;;5085642;28;20048;-64
2023/05/06 11:19:25;;;;;;;9.27;7.20;;;22.20;85.40;;;;;;5072033;28;20059;-65
2023/05/06 11:21:52;;;;;;;12.75;7.68;;;21.80;84.10;;;;;;5107220;28;20036;-66
2023/05/06 11:24:28;;;;;;;13.18;7.57;;;22.00;84.80;;;;;;5089314;28;20043;-65
2023/05/06 11:26:58;;;;;;;14.48;7.00;;;21.80;85.10;;;;;;5100790;28;20066;-67
2023/05/06 11:29:24;;;;;;;10.15;7.00;;;;;;;;;;5106233;28;20129;-65
2023/05/06 11:31:52;;;;;;;11.02;7.53;;;;;;;;;;5083548;28;20130;-66
2023/05/06 11:34:29;;;;;;;10.27;7.40;;;22.00;85.40;;;;;;5084040;28;20044;-66
2023/05/06 11:37:05;;;;;;;12.63;8.25;;;21.90;85.20;;;;;;5099598;28;20127;-66
2023/05/06 11:39:34;;;;;;;14.00;8.27;;;22.00;84.80;;;;;;5097490;28;20059;-67
2023/05/06 11:42:03;;;;;;;12.73;7.85;;;21.90;88.10;;;;;;5100828;28;20499;-65
2023/05/06 11:44:40;;;;;;;11.13;8.05;;;22.00;85.10;;;;;;5096954;28;20047;-67
2023/05/06 11:47:06;;;;;;;12.80;8.43;;;22.00;88.10;;;;;;5081682;28;20126;-63
2023/05/06 11:49:37;;;;;;;14.63;8.27;;;22.00;83.50;;;;;;5103351;28;20039;-65
2023/05/06 11:52:03;;;;;;;15.43;9.18;;;22.00;84.60;;;;;;5103833;28;20609;-65
2023/05/06 11:54:33;;;;;;;12.55;9.02;;;21.90;85.10;;;;;;5090064;28;20124;-65
2023/05/06 11:56:59;;;;;;;16.73;8.95;;;;;;;;;;5104105;28;20054;-65
2023/05/06 11:59:38;;;;;;;16.98;10.05;;;21.80;85.10;;;;;;5104273;28;20040;-65
2023/05/06 12:02:05;;;;;;;13.20;8.75;;;21.80;88.10;;;;;;5105114;28;20731;-64
2023/05/06 12:04:38;;;;;;;10.32;8.07;;;21.80;88.10;;;;;;5106033;28;20039;-66
2023/05/06 12:07:05;;;;;;;24.83;9.90;;;21.70;84.50;;;;;;5071125;28;20060;-66
2023/05/06 12:09:31;;;;;;;14.02;9.02;;;;;;;;;;5087654;28;20919;-66
2023/05/06 12:11:57;;;;;;;18.67;9.70;;;;;;;;;;5100167;28;20799;-66
2023/05/06 12:14:23;;;;;;;14.68;9.10;;;;;;;;;;5103998;28;20165;-66
2023/05/06 12:16:49;;;;;;;17.52;10.50;;;21.70;88.40;;;;;;5108304;28;20492;-66
2023/05/06 12:19:16;;;;;;;15.20;9.85;;;21.90;85.30;;;;;;5103760;28;20063;-66
2023/05/06 12:21:42;;;;;;;15.20;10.02;;;21.80;88.40;;;;;;5108483;28;20054;-65
2023/05/06 12:24:08;;;;;;;15.27;9.85;;;;;;;;;;5108010;28;20048;-64
2023/05/06 12:26:47;;;;;;;11.23;8.38;;;21.60;83.80;;;;;;5082447;28;20040;-66
2023/05/06 12:29:16;;;;;;;14.57;9.77;;;21.60;85.20;;;;;;5103022;28;20098;-67
2023/05/06 12:31:43;;;;;;;14.88;9.18;;;21.90;84.70;;;;;;5105258;28;20036;-68
2023/05/06 12:34:10;;;;;;;16.02;9.60;;;;;;;;;;5105053;28;20511;-70
2023/05/06 12:36:42;;;;;;;13.80;9.48;;;21.60;83.70;;;;;;5108129;28;20043;-69
2023/05/06 12:39:10;;;;;;;;;;;22.00;86.20;;;;;;5101951;28;20035;-66
2023/05/06 12:41:40;;;;;;;13.52;9.30;;;21.80;85.90;;;;;;5103114;28;19920;-68
2023/05/06 12:44:31;;;;;;;15.18;9.70;;;22.00;84.20;;;;;;5104099;28;20044;-64
2023/05/06 12:47:01;;;;;;;13.48;9.63;;;21.90;85.50;;;;;;5088893;28;20442;-66
2023/05/06 12:49:27;;;;;;;15.18;10.20;;;21.80;88.40;;;;;;5102942;28;20052;-64
2023/05/06 12:52:09;;;;;;;14.00;11.05;;;21.80;86.10;;;;;;5088893;28;20043;-66
2023/05/06 12:54:35;;;;;;;13.82;10.70;;;21.60;84.70;;;;;;5104637;28;20043;-65
2023/05/06 12:57:01;;;;;;;16.63;11.32;;;21.20;88.60;;;;;;5084736;28;20745;-65
2023/05/06 12:59:28;;;;;;;14.82;11.68;;;;;;;;;;5084231;28;20156;-67
2023/05/06 13:01:54;;;;;;;25.70;13.55;;;;;;;;;;5100483;28;20495;-65
2023/05/06 13:04:20;;;;;;;16.63;12.07;;;21.20;85.30;;;;;;5104531;28;20127;-66
2023/05/06 13:06:46;;;;;;;15.98;11.57;;;;;;;;;;5105012;28;20096;-66
2023/05/06 13:09:12;;;;;;;19.48;13.18;;;21.00;86.60;;;;;;5094476;28;20067;-65
2023/05/06 13:11:38;;;;;;;18.77;11.77;;;;;;;;;;5089375;28;20043;-65
2023/05/06 13:14:04;;;;;;;17.02;11.60;;;;;;;;;;5105501;28;20057;-65
2023/05/06 13:16:31;;;;;;;17.83;11.25;;;;;;;;;;5083869;28;20043;-65
2023/05/06 13:18:56;;;;;;;19.73;11.80;;;21.20;87.30;;;;;;5102542;28;20480;-66
2023/05/06 13:21:22;;;;;;;19.02;11.88;;;21.30;90.00;;;;;;5069622;28;20125;-65
2023/05/06 13:23:48;;;;;;;16.38;10.95;;;;;;;;;;5107723;28;20036;-65